sensor_id;sensor_type;location;lat;lon;timestamp;P1;durP1;ratioP1;P2;durP2;ratioP2
78549;SDS011;67846;52.130;5.570;2023-02-15T13:19:50;21.63;;;13.75;;
78549;SDS011;67846;52.130;5.570;2023-02-15T13:21:56;20.10;;;13.30;;
78549;SDS011;67846;52.130;5.570;2023-02-15T13:26:52;22.80;;;15.17;;
78549;SDS011;67846;52.130;5.570;2023-02-15T13:31:48;20.70;;;14.45;;
78549;SDS011;67846;52.130;5.570;2023-02-15T13:34:19;20.13;;;14.32;;
78549;SDS011;67846;52.130;5.570;2023-02-15T13:47:26;33.72;;;16.60;;
78549;SDS011;67846;52.130;5.570;2023-02-15T13:52:35;28.92;;;17.40;;
78549;SDS011;67846;52.130;5.570;2023-02-15T14:00:36;27.63;;;15.55;;
78549;SDS011;67846;52.130;5.570;2023-02-15T14:03:27;27.50;;;15.70;;
78549;SDS011;67846;52.130;5.570;2023-02-15T14:06:23;24.63;;;15.63;;
78549;SDS011;67846;52.130;5.570;2023-02-15T14:17:42;19.50;;;14.05;;
78549;SDS011;67846;52.130;5.570;2023-02-15T14:20:39;23.45;;;14.98;;
78549;SDS011;67846;52.130;5.570;2023-02-15T14:29:07;22.95;;;14.57;;
78549;SDS011;67846;52.130;5.570;2023-02-15T14:31:59;18.85;;;14.05;;
78549;SDS011;67846;52.130;5.570;2023-02-15T14:34:35;21.65;;;15.70;;
78549;SDS011;67846;52.130;5.570;2023-02-15T14:37:08;20.52;;;13.73;;
78549;SDS011;67846;52.130;5.570;2023-02-15T14:39:42;21.73;;;15.80;;
78549;SDS011;67846;52.130;5.570;2023-02-15T14:42:37;20.15;;;14.32;;
78549;SDS011;67846;52.130;5.570;2023-02-15T14:45:31;18.92;;;14.55;;
78549;SDS011;67846;52.130;5.570;2023-02-15T14:48:19;16.55;;;13.30;;
78549;SDS011;67846;52.130;5.570;2023-02-15T14:50:56;18.85;;;13.73;;
78549;SDS011;67846;52.130;5.570;2023-02-15T15:01:24;19.13;;;13.67;;
78549;SDS011;67846;52.130;5.570;2023-02-15T15:03:53;17.75;;;12.95;;
78549;SDS011;67846;52.130;5.570;2023-02-15T15:06:26;18.27;;;13.55;;
78549;SDS011;67846;52.130;5.570;2023-02-15T15:09:00;20.57;;;14.93;;
78549;SDS011;67846;52.130;5.570;2023-02-15T15:14:07;18.45;;;14.63;;
78549;SDS011;67846;52.130;5.570;2023-02-15T15:19:03;19.83;;;13.70;;
78549;SDS011;67846;52.130;5.570;2023-02-15T15:35:34;18.90;;;14.60;;
78549;SDS011;67846;52.130;5.570;2023-02-15T15:56:49;26.05;;;14.25;;
78549;SDS011;67846;52.130;5.570;2023-02-15T15:59:22;17.42;;;12.93;;
78549;SDS011;67846;52.130;5.570;2023-02-15T16:01:51;19.00;;;13.20;;
78549;SDS011;67846;52.130;5.570;2023-02-15T16:06:54;17.98;;;11.70;;
78549;SDS011;67846;52.130;5.570;2023-02-15T16:09:22;18.45;;;11.52;;
78549;SDS011;67846;52.130;5.570;2023-02-15T16:11:50;15.57;;;11.25;;
78549;SDS011;67846;52.130;5.570;2023-02-15T16:14:25;17.88;;;10.43;;
78549;SDS011;67846;52.130;5.570;2023-02-15T16:16:56;23.60;;;10.38;;
78549;SDS011;67846;52.130;5.570;2023-02-15T16:19:26;16.27;;;9.48;;
78549;SDS011;67846;52.130;5.570;2023-02-15T16:27:01;18.25;;;10.23;;
78549;SDS011;67846;52.130;5.570;2023-02-15T16:29:52;16.98;;;9.55;;
78549;SDS011;67846;52.130;5.570;2023-02-15T16:32:19;15.18;;;8.95;;
78549;SDS011;67846;52.130;5.570;2023-02-15T16:37:23;15.02;;;8.63;;
78549;SDS011;67846;52.130;5.570;2023-02-15T16:39:56;12.85;;;8.13;;
78549;SDS011;67846;52.130;5.570;2023-02-15T16:42:22;11.10;;;8.32;;
78549;SDS011;67846;52.130;5.570;2023-02-15T16:44:50;12.55;;;7.70;;
78549;SDS011;67846;52.130;5.570;2023-02-15T16:47:24;10.27;;;7.28;;
78549;SDS011;67846;52.130;5.570;2023-02-15T16:49:52;10.68;;;7.55;;
78549;SDS011;67846;52.130;5.570;2023-02-15T16:52:23;11.55;;;7.28;;
78549;SDS011;67846;52.130;5.570;2023-02-15T16:55:00;10.75;;;7.45;;
78549;SDS011;67846;52.130;5.570;2023-02-15T16:57:34;10.13;;;6.88;;
78549;SDS011;67846;52.130;5.570;2023-02-15T17:00:06;11.15;;;6.70;;
78549;SDS011;67846;52.130;5.570;2023-02-15T17:02:42;7.55;;;6.13;;
78549;SDS011;67846;52.130;5.570;2023-02-15T17:05:19;8.75;;;6.22;;
78549;SDS011;67846;52.130;5.570;2023-02-15T17:10:38;8.63;;;5.70;;
78549;SDS011;67846;52.130;5.570;2023-02-15T17:13:13;6.60;;;5.93;;
78549;SDS011;67846;52.130;5.570;2023-02-15T17:15:41;9.07;;;6.10;;
78549;SDS011;67846;52.130;5.570;2023-02-15T17:20:46;9.38;;;5.45;;
78549;SDS011;67846;52.130;5.570;2023-02-15T17:23:25;8.13;;;5.82;;
78549;SDS011;67846;52.130;5.570;2023-02-15T17:25:58;9.07;;;5.50;;
78549;SDS011;67846;52.130;5.570;2023-02-15T17:28:27;9.10;;;5.55;;
78549;SDS011;67846;52.130;5.570;2023-02-15T17:30:55;7.00;;;5.38;;
78549;SDS011;67846;52.130;5.570;2023-02-15T17:38:38;7.55;;;5.25;;
78549;SDS011;67846;52.130;5.570;2023-02-15T17:41:05;6.68;;;4.60;;
78549;SDS011;67846;52.130;5.570;2023-02-15T17:43:32;6.13;;;5.00;;
78549;SDS011;67846;52.130;5.570;2023-02-15T17:45:57;6.43;;;5.10;;
78549;SDS011;67846;52.130;5.570;2023-02-15T17:48:36;7.00;;;5.07;;
78549;SDS011;67846;52.130;5.570;2023-02-15T17:51:04;8.18;;;4.85;;
78549;SDS011;67846;52.130;5.570;2023-02-15T17:53:32;5.45;;;4.75;;
78549;SDS011;67846;52.130;5.570;2023-02-15T17:55:58;5.93;;;4.75;;
78549;SDS011;67846;52.130;5.570;2023-02-15T17:58:24;5.75;;;4.40;;
78549;SDS011;67846;52.130;5.570;2023-02-15T18:00:56;6.05;;;4.63;;
78549;SDS011;67846;52.130;5.570;2023-02-15T18:06:34;5.57;;;4.13;;
78549;SDS011;67846;52.130;5.570;2023-02-15T18:09:21;4.82;;;4.03;;
78549;SDS011;67846;52.130;5.570;2023-02-15T18:12:20;5.97;;;4.57;;
78549;SDS011;67846;52.130;5.570;2023-02-15T18:14:48;6.68;;;4.28;;
78549;SDS011;67846;52.130;5.570;2023-02-15T18:17:15;6.13;;;4.32;;
78549;SDS011;67846;52.130;5.570;2023-02-15T18:19:42;5.22;;;4.30;;
78549;SDS011;67846;52.130;5.570;2023-02-15T18:22:10;5.20;;;4.15;;
78549;SDS011;67846;52.130;5.570;2023-02-15T18:24:37;4.82;;;3.97;;
78549;SDS011;67846;52.130;5.570;2023-02-15T18:27:03;6.35;;;4.07;;
78549;SDS011;67846;52.130;5.570;2023-02-15T18:29:29;5.78;;;4.20;;
78549;SDS011;67846;52.130;5.570;2023-02-15T18:31:55;4.40;;;3.95;;
78549;SDS011;67846;52.130;5.570;2023-02-15T18:36:51;6.95;;;4.20;;
78549;SDS011;67846;52.130;5.570;2023-02-15T18:39:39;5.28;;;4.30;;
78549;SDS011;67846;52.130;5.570;2023-02-15T18:42:05;6.22;;;4.88;;
78549;SDS011;67846;52.130;5.570;2023-02-15T18:44:38;7.63;;;4.13;;
78549;SDS011;67846;52.130;5.570;2023-02-15T18:47:03;5.47;;;4.18;;
78549;SDS011;67846;52.130;5.570;2023-02-15T18:49:29;4.68;;;4.10;;
78549;SDS011;67846;52.130;5.570;2023-02-15T18:51:54;4.70;;;4.13;;
78549;SDS011;67846;52.130;5.570;2023-02-15T18:54:22;7.22;;;4.50;;
78549;SDS011;67846;52.130;5.570;2023-02-15T18:56:55;8.00;;;4.63;;
78549;SDS011;67846;52.130;5.570;2023-02-15T18:59:23;6.18;;;4.47;;
78549;SDS011;67846;52.130;5.570;2023-02-15T19:01:50;6.30;;;4.82;;
78549;SDS011;67846;52.130;5.570;2023-02-15T19:04:17;6.45;;;4.88;;
78549;SDS011;67846;52.130;5.570;2023-02-15T19:06:43;7.32;;;4.35;;
78549;SDS011;67846;52.130;5.570;2023-02-15T19:09:20;7.60;;;5.20;;
78549;SDS011;67846;52.130;5.570;2023-02-15T19:11:54;6.82;;;4.90;;
78549;SDS011;67846;52.130;5.570;2023-02-15T19:14:38;8.57;;;5.10;;
78549;SDS011;67846;52.130;5.570;2023-02-15T19:41:00;7.68;;;5.15;;
78549;SDS011;67846;52.130;5.570;2023-02-15T19:43:29;8.32;;;4.75;;
78549;SDS011;67846;52.130;5.570;2023-02-15T19:45:55;6.03;;;4.90;;
78549;SDS011;67846;52.130;5.570;2023-02-15T19:48:20;8.38;;;4.80;;
78549;SDS011;67846;52.130;5.570;2023-02-15T19:50:46;6.95;;;5.15;;
78549;SDS011;67846;52.130;5.570;2023-02-15T19:53:16;7.60;;;5.00;;
78549;SDS011;67846;52.130;5.570;2023-02-15T19:55:46;8.43;;;5.50;;
78549;SDS011;67846;52.130;5.570;2023-02-15T19:58:12;8.18;;;5.40;;
78549;SDS011;67846;52.130;5.570;2023-02-15T20:00:43;6.85;;;5.43;;
78549;SDS011;67846;52.130;5.570;2023-02-15T20:03:09;6.30;;;5.22;;
78549;SDS011;67846;52.130;5.570;2023-02-15T20:13:45;3.67;;;2.95;;
78549;SDS011;67846;52.130;5.570;2023-02-15T20:16:10;4.88;;;3.30;;
78549;SDS011;67846;52.130;5.570;2023-02-15T20:18:36;3.67;;;2.88;;
78549;SDS011;67846;52.130;5.570;2023-02-15T20:21:01;6.50;;;3.58;;
78549;SDS011;67846;52.130;5.570;2023-02-15T20:23:32;4.05;;;3.20;;
78549;SDS011;67846;52.130;5.570;2023-02-15T20:26:00;4.05;;;3.22;;
78549;SDS011;67846;52.130;5.570;2023-02-15T20:28:31;5.72;;;3.53;;
78549;SDS011;67846;52.130;5.570;2023-02-15T20:30:57;5.47;;;4.03;;
78549;SDS011;67846;52.130;5.570;2023-02-15T20:33:23;4.70;;;3.72;;
78549;SDS011;67846;52.130;5.570;2023-02-15T20:35:49;4.72;;;3.85;;
78549;SDS011;67846;52.130;5.570;2023-02-15T20:38:22;5.28;;;3.88;;
78549;SDS011;67846;52.130;5.570;2023-02-15T20:40:53;5.18;;;3.97;;
78549;SDS011;67846;52.130;5.570;2023-02-15T20:43:38;5.65;;;3.85;;
78549;SDS011;67846;52.130;5.570;2023-02-15T20:46:04;5.93;;;4.63;;
78549;SDS011;67846;52.130;5.570;2023-02-15T20:48:29;5.97;;;4.20;;
78549;SDS011;67846;52.130;5.570;2023-02-15T20:50:55;6.32;;;4.28;;
78549;SDS011;67846;52.130;5.570;2023-02-15T20:53:22;6.68;;;4.40;;
78549;SDS011;67846;52.130;5.570;2023-02-15T20:55:48;5.45;;;4.18;;
78549;SDS011;67846;52.130;5.570;2023-02-15T20:58:18;6.35;;;4.22;;
78549;SDS011;67846;52.130;5.570;2023-02-15T21:00:44;8.63;;;5.18;;
78549;SDS011;67846;52.130;5.570;2023-02-15T21:03:11;6.93;;;4.82;;
78549;SDS011;67846;52.130;5.570;2023-02-15T21:05:38;5.82;;;4.60;;
78549;SDS011;67846;52.130;5.570;2023-02-15T21:08:13;5.85;;;4.80;;
78549;SDS011;67846;52.130;5.570;2023-02-15T21:10:40;7.00;;;4.72;;
78549;SDS011;67846;52.130;5.570;2023-02-15T21:13:14;6.68;;;5.07;;
78549;SDS011;67846;52.130;5.570;2023-02-15T21:15:57;6.20;;;4.57;;
78549;SDS011;67846;52.130;5.570;2023-02-15T21:18:25;7.35;;;5.00;;
78549;SDS011;67846;52.130;5.570;2023-02-15T21:20:52;6.38;;;4.65;;
78549;SDS011;67846;52.130;5.570;2023-02-15T21:23:28;8.50;;;5.00;;
78549;SDS011;67846;52.130;5.570;2023-02-15T21:26:02;7.28;;;5.22;;
78549;SDS011;67846;52.130;5.570;2023-02-15T21:28:28;6.75;;;5.18;;
78549;SDS011;67846;52.130;5.570;2023-02-15T21:30:55;7.97;;;5.90;;
78549;SDS011;67846;52.130;5.570;2023-02-15T21:33:22;7.20;;;5.53;;
78549;SDS011;67846;52.130;5.570;2023-02-15T21:35:50;6.85;;;5.25;;
78549;SDS011;67846;52.130;5.570;2023-02-15T21:38:20;7.32;;;5.65;;
78549;SDS011;67846;52.130;5.570;2023-02-15T21:40:48;8.43;;;5.72;;
78549;SDS011;67846;52.130;5.570;2023-02-15T21:43:15;7.50;;;5.68;;
78549;SDS011;67846;52.130;5.570;2023-02-15T21:46:11;7.53;;;5.93;;
78549;SDS011;67846;52.130;5.570;2023-02-15T21:49:00;8.52;;;5.35;;
78549;SDS011;67846;52.130;5.570;2023-02-15T21:51:27;9.10;;;6.07;;
78549;SDS011;67846;52.130;5.570;2023-02-15T21:54:12;7.65;;;5.57;;
78549;SDS011;67846;52.130;5.570;2023-02-15T21:56:38;6.65;;;5.03;;
78549;SDS011;67846;52.130;5.570;2023-02-15T21:59:10;6.97;;;5.50;;
78549;SDS011;67846;52.130;5.570;2023-02-15T22:01:37;7.75;;;5.35;;
78549;SDS011;67846;52.130;5.570;2023-02-15T22:04:11;6.88;;;5.53;;
78549;SDS011;67846;52.130;5.570;2023-02-15T22:06:38;6.70;;;5.03;;
78549;SDS011;67846;52.130;5.570;2023-02-15T22:09:14;7.20;;;5.22;;
78549;SDS011;67846;52.130;5.570;2023-02-15T22:11:41;6.70;;;5.20;;
78549;SDS011;67846;52.130;5.570;2023-02-15T22:14:14;7.28;;;5.10;;
78549;SDS011;67846;52.130;5.570;2023-02-15T22:16:59;8.65;;;5.63;;
78549;SDS011;67846;52.130;5.570;2023-02-15T22:19:25;10.70;;;5.82;;
78549;SDS011;67846;52.130;5.570;2023-02-15T22:21:52;6.85;;;5.60;;
78549;SDS011;67846;52.130;5.570;2023-02-15T22:24:18;8.65;;;5.68;;
78549;SDS011;67846;52.130;5.570;2023-02-15T22:26:43;8.30;;;5.60;;
78549;SDS011;67846;52.130;5.570;2023-02-15T22:29:12;6.28;;;5.07;;
78549;SDS011;67846;52.130;5.570;2023-02-15T22:31:41;8.50;;;5.90;;
78549;SDS011;67846;52.130;5.570;2023-02-15T22:34:11;7.45;;;5.53;;
78549;SDS011;67846;52.130;5.570;2023-02-15T22:36:51;9.75;;;5.95;;
78549;SDS011;67846;52.130;5.570;2023-02-15T22:39:17;7.82;;;5.80;;
78549;SDS011;67846;52.130;5.570;2023-02-15T22:41:43;8.43;;;5.97;;
78549;SDS011;67846;52.130;5.570;2023-02-15T22:44:11;7.10;;;5.88;;
78549;SDS011;67846;52.130;5.570;2023-02-15T22:46:39;8.30;;;6.05;;
78549;SDS011;67846;52.130;5.570;2023-02-15T22:49:05;7.40;;;5.70;;
78549;SDS011;67846;52.130;5.570;2023-02-15T22:51:31;7.57;;;5.60;;
78549;SDS011;67846;52.130;5.570;2023-02-15T22:53:56;8.48;;;6.22;;
78549;SDS011;67846;52.130;5.570;2023-02-15T22:56:26;8.63;;;6.18;;
78549;SDS011;67846;52.130;5.570;2023-02-15T22:59:04;11.40;;;6.95;;
78549;SDS011;67846;52.130;5.570;2023-02-15T23:01:43;9.02;;;6.88;;
78549;SDS011;67846;52.130;5.570;2023-02-15T23:04:13;9.77;;;6.22;;
78549;SDS011;67846;52.130;5.570;2023-02-15T23:06:42;9.90;;;6.80;;
78549;SDS011;67846;52.130;5.570;2023-02-15T23:09:07;8.10;;;5.82;;
78549;SDS011;67846;52.130;5.570;2023-02-15T23:11:33;8.68;;;6.43;;
78549;SDS011;67846;52.130;5.570;2023-02-15T23:13:59;9.38;;;6.05;;
78549;SDS011;67846;52.130;5.570;2023-02-15T23:16:27;7.72;;;5.45;;
78549;SDS011;67846;52.130;5.570;2023-02-15T23:18:53;8.68;;;5.95;;
78549;SDS011;67846;52.130;5.570;2023-02-15T23:24:04;8.77;;;5.65;;
78549;SDS011;67846;52.130;5.570;2023-02-15T23:26:34;7.32;;;5.60;;
78549;SDS011;67846;52.130;5.570;2023-02-15T23:28:59;7.68;;;5.47;;
78549;SDS011;67846;52.130;5.570;2023-02-15T23:31:33;7.70;;;5.35;;
78549;SDS011;67846;52.130;5.570;2023-02-15T23:34:01;10.55;;;6.78;;
78549;SDS011;67846;52.130;5.570;2023-02-15T23:36:38;10.57;;;6.60;;
78549;SDS011;67846;52.130;5.570;2023-02-15T23:39:11;8.90;;;5.80;;
78549;SDS011;67846;52.130;5.570;2023-02-15T23:42:16;7.97;;;5.68;;
78549;SDS011;67846;52.130;5.570;2023-02-15T23:44:44;9.70;;;6.43;;
78549;SDS011;67846;52.130;5.570;2023-02-15T23:47:20;7.82;;;5.53;;
78549;SDS011;67846;52.130;5.570;2023-02-15T23:50:20;7.82;;;5.88;;
78549;SDS011;67846;52.130;5.570;2023-02-15T23:52:48;9.27;;;6.78;;
78549;SDS011;67846;52.130;5.570;2023-02-15T23:55:15;8.40;;;6.47;;
78549;SDS011;67846;52.130;5.570;2023-02-15T23:57:41;7.82;;;6.32;;
